createdAt,value
2019-01-04T00:01:12.437Z,101713.00
2019-01-04T00:03:38.626Z,101704.00
2019-01-04T00:06:04.801Z,101703.00
2019-01-04T00:08:30.988Z,101703.00
2019-01-04T00:10:57.173Z,101703.00
2019-01-04T00:13:23.366Z,101711.00
2019-01-04T00:15:49.535Z,101718.00
2019-01-04T00:18:15.759Z,101706.00
2019-01-04T00:20:41.905Z,101705.00
2019-01-04T00:23:08.090Z,101713.00
2019-01-04T00:25:34.263Z,101714.00
2019-01-04T00:28:00.445Z,101726.00
2019-01-04T00:30:26.622Z,101727.00
2019-01-04T00:32:52.817Z,101723.00
2019-01-04T00:35:19.009Z,101723.00
2019-01-04T00:37:45.183Z,101729.00
2019-01-04T00:40:11.371Z,101729.00
2019-01-04T00:42:37.544Z,101729.00
2019-01-04T00:45:06.435Z,101738.00
2019-01-04T00:47:32.613Z,101746.00
2019-01-04T00:49:58.800Z,101742.00
2019-01-04T00:52:24.987Z,101736.00
2019-01-04T00:54:52.968Z,101738.00
2019-01-04T00:57:27.548Z,101745.00
2019-01-04T01:00:37.474Z,101748.00
2019-01-04T01:03:47.334Z,101744.00
2019-01-04T01:07:00.946Z,101740.00
2019-01-04T01:09:41.604Z,101740.00
2019-01-04T01:12:33.731Z,101741.00
2019-01-04T01:15:14.218Z,101740.00
2019-01-04T01:18:12.727Z,101741.00
2019-01-04T01:21:02.454Z,101740.00
2019-01-04T01:24:17.004Z,101755.00
2019-01-04T01:26:57.624Z,101747.00
2019-01-04T01:30:01.000Z,101751.00
2019-01-04T01:32:59.535Z,101749.00
2019-01-04T01:35:46.495Z,101744.00
2019-01-04T01:38:48.469Z,101739.00
2019-01-04T01:41:46.366Z,101730.00
2019-01-04T01:44:29.568Z,101722.00
2019-01-04T01:47:09.732Z,101725.00
2019-01-04T01:49:41.648Z,101737.00
2019-01-04T01:52:22.547Z,101736.00
2019-01-04T01:54:48.733Z,101732.00
2019-01-04T01:57:14.909Z,101726.00
2019-01-04T01:59:41.269Z,101722.00
2019-01-04T02:02:07.463Z,101718.00
2019-01-04T02:04:33.647Z,101713.00
2019-01-04T02:06:59.824Z,101728.00
2019-01-04T02:09:26.016Z,101727.00
2019-01-04T02:11:52.194Z,101730.00
2019-01-04T02:14:18.632Z,101737.00
2019-01-04T02:16:44.817Z,101743.00
2019-01-04T02:19:10.998Z,101743.00
2019-01-04T02:21:37.181Z,101740.00
2019-01-04T02:24:03.368Z,101731.00
2019-01-04T02:26:29.548Z,101739.00
2019-01-04T02:28:55.727Z,101733.00
2019-01-04T02:31:21.913Z,101728.00
2019-01-04T02:33:48.124Z,101726.00
2019-01-04T02:36:14.296Z,101732.00
2019-01-04T02:38:40.469Z,101727.00
2019-01-04T02:41:06.662Z,101714.00
2019-01-04T02:43:32.836Z,101718.00
2019-01-04T02:45:59.033Z,101717.00
2019-01-04T02:48:25.210Z,101712.00
2019-01-04T02:50:51.395Z,101704.00
2019-01-04T02:53:17.571Z,101709.00
2019-01-04T02:55:43.755Z,101714.00
2019-01-04T02:58:09.933Z,101715.00
2019-01-04T03:00:36.117Z,101716.00
2019-01-04T03:03:02.393Z,101716.00
2019-01-04T03:05:28.585Z,101719.00
2019-01-04T03:07:54.760Z,101722.00
2019-01-04T03:10:20.946Z,101708.00
2019-01-04T03:12:47.117Z,101729.00
2019-01-04T03:15:13.295Z,101716.00
2019-01-04T03:17:39.479Z,101715.00
2019-01-04T03:20:05.868Z,101714.00
2019-01-04T03:22:32.048Z,101711.00
2019-01-04T03:24:58.232Z,101713.00
2019-01-04T03:27:24.413Z,101710.00
2019-01-04T03:29:50.605Z,101704.00
2019-01-04T03:32:16.792Z,101688.00
2019-01-04T03:34:42.976Z,101700.00
2019-01-04T03:37:09.149Z,101692.00
2019-01-04T03:39:35.342Z,101683.00
2019-01-04T03:42:01.620Z,101681.00
2019-01-04T03:44:27.798Z,101682.00
2019-01-04T03:46:53.981Z,101682.00
2019-01-04T03:49:20.156Z,101679.00
2019-01-04T03:51:46.343Z,101675.00
2019-01-04T03:54:12.515Z,101671.00
2019-01-04T03:56:38.713Z,101674.00
2019-01-04T03:59:04.890Z,101681.00
2019-01-04T04:01:31.078Z,101672.00
2019-01-04T04:03:57.252Z,101670.00
2019-01-04T04:06:23.441Z,101667.00
2019-01-04T04:08:49.612Z,101655.00
2019-01-04T04:11:15.794Z,101659.00
2019-01-04T04:13:41.972Z,101655.00
2019-01-04T04:16:08.158Z,101652.00
2019-01-04T04:18:34.335Z,101648.00
2019-01-04T04:21:00.528Z,101645.00
2019-01-04T04:23:26.695Z,101651.00
2019-01-04T04:25:52.889Z,101641.00
2019-01-04T04:28:19.062Z,101653.00
2019-01-04T04:30:45.607Z,101654.00
2019-01-04T04:33:11.793Z,101654.00
2019-01-04T04:35:37.985Z,101665.00
2019-01-04T04:38:04.160Z,101656.00
2019-01-04T04:40:30.852Z,101659.00
2019-01-04T04:42:57.219Z,101659.00
2019-01-04T04:45:23.402Z,101667.00
2019-01-04T04:47:49.570Z,101663.00
2019-01-04T04:50:15.773Z,101644.00
2019-01-04T04:52:41.933Z,101662.00
2019-01-04T04:55:08.123Z,101656.00
2019-01-04T04:57:34.296Z,101646.00
2019-01-04T05:00:00.476Z,101654.00
2019-01-04T05:02:26.660Z,101643.00
2019-01-04T05:04:52.841Z,101637.00
2019-01-04T05:07:19.343Z,101648.00
2019-01-04T05:09:45.515Z,101643.00
2019-01-04T05:12:11.700Z,101642.00
2019-01-04T05:14:37.878Z,101645.00
2019-01-04T05:17:04.068Z,101644.00
2019-01-04T05:19:30.248Z,101637.00
2019-01-04T05:21:56.439Z,101638.00
2019-01-04T05:24:22.613Z,101633.00
2019-01-04T05:26:48.799Z,101619.00
2019-01-04T05:29:14.979Z,101624.00
2019-01-04T05:31:41.169Z,101622.00
2019-01-04T05:34:07.370Z,101621.00
2019-01-04T05:36:33.547Z,101621.00
2019-01-04T05:39:00.001Z,101604.00
2019-01-04T05:41:26.188Z,101601.00
2019-01-04T05:43:52.363Z,101608.00
2019-01-04T05:46:18.554Z,101606.00
2019-01-04T05:48:44.733Z,101617.00
2019-01-04T05:51:10.915Z,101630.00
2019-01-04T05:53:37.086Z,101623.00
2019-01-04T05:56:03.276Z,101628.00
2019-01-04T05:58:29.457Z,101629.00
2019-01-04T06:00:55.654Z,101632.00
2019-01-04T06:03:21.829Z,101624.00
2019-01-04T06:05:48.016Z,101632.00
2019-01-04T06:08:14.198Z,101628.00
2019-01-04T06:10:40.384Z,101621.00
2019-01-04T06:13:06.569Z,101622.00
2019-01-04T06:15:32.739Z,101629.00
2019-01-04T06:17:58.929Z,101613.00
2019-01-04T06:20:25.096Z,101618.00
2019-01-04T06:22:51.284Z,101612.00
2019-01-04T06:25:17.461Z,101601.00
2019-01-04T06:27:44.195Z,101606.00
2019-01-04T06:30:10.423Z,101612.00
2019-01-04T06:32:36.624Z,101599.00
2019-01-04T06:35:03.697Z,101613.00
2019-01-04T06:37:29.883Z,101619.00
2019-01-04T06:39:56.055Z,101614.00
2019-01-04T06:42:22.236Z,101603.00
2019-01-04T06:44:48.407Z,101618.00
2019-01-04T06:47:15.714Z,101614.00
2019-01-04T06:49:42.183Z,101621.00
2019-01-04T06:52:08.376Z,101619.00
2019-01-04T06:55:13.465Z,101619.00
2019-01-04T06:57:39.754Z,101612.00
2019-01-04T07:00:07.631Z,101621.00
2019-01-04T07:02:33.821Z,101631.00
2019-01-04T07:05:00.014Z,101625.00
2019-01-04T07:07:26.196Z,101626.00
2019-01-04T07:09:52.464Z,101623.00
2019-01-04T07:12:18.652Z,101629.00
2019-01-04T07:14:44.826Z,101625.00
2019-01-04T07:17:11.021Z,101615.00
2019-01-04T07:19:37.187Z,101617.00
2019-01-04T07:22:03.374Z,101614.00
2019-01-04T07:24:29.559Z,101614.00
2019-01-04T07:26:55.748Z,101602.00
2019-01-04T07:29:21.918Z,101607.00
2019-01-04T07:31:48.112Z,101600.00
2019-01-04T07:34:14.305Z,101599.00
2019-01-04T07:36:40.491Z,101605.00
2019-01-04T07:39:06.664Z,101614.00
2019-01-04T07:41:32.850Z,101601.00
2019-01-04T07:43:59.025Z,101605.00
2019-01-04T07:46:25.209Z,101609.00
2019-01-04T07:48:51.483Z,101601.00
2019-01-04T07:51:18.020Z,101616.00
2019-01-04T07:53:44.207Z,101597.00
2019-01-04T07:56:10.391Z,101605.00
2019-01-04T07:58:36.582Z,101599.00
2019-01-04T08:01:02.755Z,101583.00
2019-01-04T08:03:28.942Z,101589.00
2019-01-04T08:05:55.119Z,101581.00
2019-01-04T08:08:21.308Z,101585.00
2019-01-04T08:10:47.487Z,101582.00
2019-01-04T08:13:13.678Z,101581.00
2019-01-04T08:15:39.856Z,101569.00
2019-01-04T08:18:06.043Z,101561.00
2019-01-04T08:20:32.218Z,101567.00
2019-01-04T08:22:58.404Z,101555.00
2019-01-04T08:25:24.574Z,101560.00
2019-01-04T08:27:50.765Z,101551.00
2019-01-04T08:30:16.940Z,101560.00
2019-01-04T08:32:43.135Z,101561.00
2019-01-04T08:35:09.312Z,101557.00
2019-01-04T08:37:35.505Z,101545.00
2019-01-04T08:40:02.989Z,101549.00
2019-01-04T08:42:29.528Z,101552.00
2019-01-04T08:44:55.702Z,101544.00
2019-01-04T08:47:22.199Z,101550.00
2019-01-04T08:49:48.371Z,101532.00
2019-01-04T08:52:14.560Z,101532.00
2019-01-04T08:54:40.735Z,101532.00
2019-01-04T08:57:07.210Z,101530.00
2019-01-04T08:59:33.379Z,101525.00
2019-01-04T09:01:59.568Z,101533.00
2019-01-04T09:04:25.743Z,101522.00
2019-01-04T09:06:51.920Z,101521.00
2019-01-04T09:09:18.103Z,101517.00
2019-01-04T09:11:44.289Z,101515.00
2019-01-04T09:14:10.473Z,101510.00
2019-01-04T09:16:36.708Z,101516.00
2019-01-04T09:19:02.834Z,101506.00
2019-01-04T09:21:29.014Z,101499.00
2019-01-04T09:23:55.197Z,101493.00
2019-01-04T09:26:21.631Z,101494.00
2019-01-04T09:28:47.816Z,101490.00
2019-01-04T09:31:14.000Z,101491.00
2019-01-04T09:33:40.200Z,101497.00
2019-01-04T09:36:06.371Z,101494.00
2019-01-04T09:38:32.561Z,101489.00
2019-01-04T09:41:24.417Z,101489.00
2019-01-04T09:43:50.600Z,101482.00
2019-01-04T09:46:16.783Z,101487.00
2019-01-04T09:48:42.978Z,101486.00
2019-01-04T09:51:09.151Z,101481.00
2019-01-04T09:53:35.345Z,101484.00
